Time;durP1;ratioP1;P1;durP2;ratioP2;P2;SDS_P1;SDS_P2;PMS_P1;PMS_P2;Temp;Humidity;BMP_temperature;BMP_pressure;BME280_temperature;BME280_humidity;BME280_pressure;Samples;Min_cycle;Max_cycle;Signal;HPM_P1;HPM_P2
2022/01/18 00:00:01;;;;;;;;;;;7.00;94.80;;;;;;4968393;28;19914;-84
2022/01/18 00:02:26;;;;;;;;;;;7.10;94.90;;;;;;5005572;28;20341;-84
2022/01/18 00:04:52;;;;;;;;;;;7.10;95.00;;;;;;4978273;28;19913;-84
2022/01/18 00:07:18;;;;;;;;;;;7.20;95.00;;;;;;4982735;28;19939;-84
2022/01/18 00:09:43;;;;;;;;;;;7.20;95.00;;;;;;4974532;28;19913;-84
2022/01/18 00:15:15;;;;;;;;;;;7.30;95.10;;;;;;4982250;28;19913;-84
2022/01/18 00:17:51;;;;;;;;;;;7.30;95.10;;;;;;5004219;28;19989;-84
2022/01/18 00:20:21;;;;;;;;;;;7.30;95.20;;;;;;4992989;28;20003;-84
2022/01/18 00:22:46;;;;;;;;;;;7.40;95.20;;;;;;4981452;28;20432;-84
2022/01/18 00:25:12;;;;;;;;;;;7.40;95.20;;;;;;4982202;28;19918;-84
2022/01/18 00:27:38;;;;;;;;;;;7.40;95.20;;;;;;4985912;28;19917;-84
2022/01/18 00:30:37;;;;;;;;;;;7.40;95.30;;;;;;4968500;28;20410;-84
2022/01/18 00:35:16;;;;;;;;;;;7.40;95.30;;;;;;4994297;28;19917;-84
2022/01/18 00:37:51;;;;;;;;;;;7.50;95.30;;;;;;4993965;28;19928;-86
2022/01/18 00:40:16;;;;;;;;;;;7.50;95.30;;;;;;4981737;28;19954;-86
2022/01/18 00:42:42;;;;;;;;;;;7.50;95.30;;;;;;4973791;28;19964;-86
2022/01/18 00:45:08;;;;;;;;;;;7.50;95.30;;;;;;4984812;28;20004;-86
2022/01/18 00:47:33;;;;;;;;;;;7.50;95.30;;;;;;4983610;28;19964;-86
2022/01/18 00:50:01;;;;;;;;;;;7.50;95.30;;;;;;4988825;28;20093;-86
2022/01/18 00:52:28;;;;;;;;;;;7.50;95.30;;;;;;4988966;28;19914;-86
2022/01/18 00:54:54;;;;;;;;;;;7.50;95.30;;;;;;4975176;28;19920;-87
2022/01/18 00:57:20;;;;;;;;;;;7.50;95.70;;;;;;4974401;28;19917;-86
2022/01/18 00:59:47;;;;;;;;;;;7.50;95.30;;;;;;4991620;28;19929;-87
2022/01/18 01:02:13;;;;;;;;;;;7.50;95.30;;;;;;4963235;28;19921;-87
2022/01/18 01:04:47;;;;;;;;;;;7.50;95.30;;;;;;4972327;28;20393;-87
2022/01/18 01:07:13;;;;;;;;;;;7.40;95.30;;;;;;5003035;28;19913;-86
2022/01/18 01:09:38;;;;;;;;;;;7.40;95.20;;;;;;4975084;28;19914;-86
2022/01/18 01:12:05;;;;;;;;;;;7.40;95.20;;;;;;4981836;28;19917;-86
2022/01/18 01:14:32;;;;;;;;;;;7.40;95.20;;;;;;4973295;28;20337;-86
2022/01/18 01:32:09;;;;;;;;;;;7.30;95.10;;;;;;5009051;28;19918;-86
2022/01/18 01:46:31;;;;;;;;;;;7.40;95.40;;;;;;4993247;28;19957;-85
2022/01/18 01:48:59;;;;;;;;;;;7.40;95.40;;;;;;4990532;28;20024;-85
2022/01/18 01:51:30;;;;;;;;;;;7.40;95.40;;;;;;4991738;28;19924;-84
2022/01/18 01:53:59;;;;;;;;;;;7.40;95.30;;;;;;4953531;28;20322;-84
2022/01/18 01:56:25;;;;;;;;;;;7.40;95.40;;;;;;4985909;28;20017;-84
2022/01/18 01:58:51;;;;;;;;;;;7.40;95.30;;;;;;4979380;28;20107;-84
2022/01/18 02:01:17;;;;;;;;;;;7.40;95.30;;;;;;5009664;28;19920;-87
2022/01/18 02:03:42;;;;;;;;;;;7.40;95.30;;;;;;4967139;28;19913;-87
2022/01/18 02:06:08;;;;;;;;;;;7.30;95.30;;;;;;4982401;28;19921;-87
2022/01/18 02:08:33;;;;;;;;;;;7.30;95.30;;;;;;4970631;28;19917;-87
2022/01/18 02:10:59;;;;;;;;;;;7.30;95.40;;;;;;4976823;28;19913;-87
2022/01/18 02:13:24;;;;;;;;;;;7.30;95.40;;;;;;4982683;28;19986;-87
2022/01/18 02:23:56;;;;;;;;;;;7.30;95.30;;;;;;4987742;28;20110;-87
2022/01/18 02:26:22;;;;;;;;;;;7.30;95.30;;;;;;4980706;28;19914;-87
2022/01/18 02:28:47;;;;;;;;;;;7.30;95.30;;;;;;4978078;28;20221;-87
2022/01/18 02:31:13;;;;;;;;;;;7.30;95.30;;;;;;4983295;28;19917;-87
2022/01/18 02:33:39;;;;;;;;;;;7.30;95.30;;;;;;4968422;28;20406;-87
2022/01/18 02:36:09;;;;;;;;;;;7.30;95.30;;;;;;4979797;28;19917;-87
2022/01/18 02:38:34;;;;;;;;;;;7.30;95.30;;;;;;4992937;28;19925;-87
2022/01/18 02:41:00;;;;;;;;;;;7.30;95.30;;;;;;4970099;28;20153;-87
2022/01/18 02:43:48;;;;;;;;;;;7.30;95.30;;;;;;4991126;28;19964;-87
2022/01/18 02:46:13;;;;;;;;;;;7.30;95.40;;;;;;4975096;28;19913;-87
2022/01/18 02:48:39;;;;;;;;;;;7.30;95.40;;;;;;4966128;28;19965;-87
2022/01/18 02:51:04;;;;;;;;;;;7.30;95.40;;;;;;4999490;28;20417;-87
2022/01/18 02:53:30;;;;;;;;;;;7.30;95.30;;;;;;4998129;28;20291;-87
2022/01/18 02:55:57;;;;;;;;;;;7.30;95.40;;;;;;4977072;28;20445;-87
2022/01/18 02:58:29;;;;;;;;;;;7.30;95.40;;;;;;4997696;28;19925;-87
2022/01/18 03:03:34;;;;;;;;;;;7.30;95.40;;;;;;4998789;28;19914;-87
2022/01/18 03:06:00;;;;;;;;;;;7.30;95.40;;;;;;4975012;28;20423;-87
2022/01/18 03:08:27;;;;;;;;;;;7.30;95.40;;;;;;4997581;28;19957;-87
2022/01/18 03:10:52;;;;;;;;;;;7.30;95.40;;;;;;4975161;28;20213;-87
2022/01/18 03:13:18;;;;;;;;;;;7.30;95.40;;;;;;4975328;28;20334;-87
2022/01/18 03:15:44;;;;;;;;;;;7.30;95.40;;;;;;4983496;28;19913;-87
2022/01/18 03:18:10;;;;;;;;;;;7.30;95.40;;;;;;4985043;28;19971;-87
2022/01/18 03:20:36;;;;;;;;;;;7.30;95.40;;;;;;4979154;28;20001;-87
2022/01/18 03:23:04;;;;;;;;;;;7.30;95.40;;;;;;4994681;28;20130;-87
2022/01/18 03:25:41;;;;;;;;;;;7.20;95.40;;;;;;5009103;28;19921;-87
2022/01/18 03:28:07;;;;;;;;;;;7.20;95.40;;;;;;4965565;28;20444;-87
2022/01/18 03:30:42;;;;;;;;;;;7.20;95.40;;;;;;4974035;28;20071;-87
2022/01/18 03:33:09;;;;;;;;;;;7.20;95.40;;;;;;4991878;28;19967;-87
2022/01/18 03:35:35;;;;;;;;;;;7.20;95.40;;;;;;4982784;28;20050;-87
2022/01/18 03:38:00;;;;;;;;;;;7.30;95.40;;;;;;4978182;28;19926;-87
2022/01/18 03:40:26;;;;;;;;;;;7.20;95.40;;;;;;4972354;28;19921;-87
2022/01/18 03:42:52;;;;;;;;;;;7.20;95.40;;;;;;4978061;28;19910;-87
2022/01/18 03:45:29;;;;;;;;;;;7.20;95.40;;;;;;4990638;28;20432;-87
2022/01/18 03:47:57;;;;;;;;;;;7.20;95.40;;;;;;5008976;28;20385;-87
2022/01/18 03:50:23;;;;;;;;;;;7.20;95.40;;;;;;4969192;28;20704;-87
2022/01/18 03:52:49;;;;;;;;;;;7.20;95.40;;;;;;5002863;28;19910;-87
2022/01/18 03:55:16;;;;;;;;;;;7.20;95.30;;;;;;4992002;28;19914;-87
2022/01/18 03:57:41;;;;;;;;;;;7.20;95.30;;;;;;4992976;28;20141;-87
2022/01/18 04:00:09;;;;;;;;;;;7.20;95.20;;;;;;4992492;28;19913;-87
2022/01/18 04:02:34;;;;;;;;;;;7.10;95.20;;;;;;4983115;28;20253;-87
2022/01/18 04:05:00;;;;;;;;;;;7.10;95.50;;;;;;4983572;28;20011;-87
2022/01/18 04:07:26;;;;;;;;;;;7.10;95.20;;;;;;4987054;28;19943;-87
2022/01/18 04:09:51;;;;;;;;;;;7.10;95.20;;;;;;4984978;28;20263;-87
2022/01/18 04:12:17;;;;;;;;;;;7.10;95.20;;;;;;4977864;28;19922;-87
2022/01/18 04:14:43;;;;;;;;;;;7.10;95.20;;;;;;4988875;28;19952;-87
2022/01/18 04:17:34;;;;;;;;;;;7.10;95.20;;;;;;4985933;28;19929;-87
2022/01/18 04:28:19;;;;;;;;;;;7.00;95.20;;;;;;5009106;28;19916;-87
2022/01/18 04:30:45;;;;;;;;;;;7.00;95.20;;;;;;4996302;28;20270;-87
2022/01/18 04:33:11;;;;;;;;;;;7.00;95.20;;;;;;4993907;28;19913;-87
2022/01/18 04:35:36;;;;;;;;;;;7.00;95.20;;;;;;4991378;28;19913;-87
2022/01/18 04:38:02;;;;;;;;;;;7.00;95.20;;;;;;4993670;28;20169;-87
2022/01/18 04:40:30;;;;;;;;;;;7.00;95.20;;;;;;4983782;28;19920;-87
2022/01/18 04:50:50;;;;;;;;;;;7.00;95.20;;;;;;5012261;28;20004;-87
2022/01/18 04:53:16;;;;;;;;;;;7.00;95.20;;;;;;4988710;28;20016;-87
2022/01/18 04:55:42;;;;;;;;;;;7.00;95.30;;;;;;4994964;28;19914;-87
2022/01/18 04:58:07;;;;;;;;;;;7.00;95.30;;;;;;4982368;28;19921;-87
2022/01/18 05:00:33;;;;;;;;;;;7.00;95.30;;;;;;4976595;28;20029;-87
2022/01/18 05:02:58;;;;;;;;;;;7.00;95.30;;;;;;4991405;28;19920;-87
2022/01/18 05:07:55;;;;;;;;;;;7.00;95.30;;;;;;5014143;28;20267;-87
2022/01/18 05:10:22;;;;;;;;;;;7.00;95.30;;;;;;4966474;28;20205;-87
2022/01/18 05:12:51;;;;;;;;;;;7.00;95.30;;;;;;4987422;28;19914;-87
2022/01/18 05:23:14;;;;;;;;;;;7.10;95.30;;;;;;4999089;28;19920;-87
2022/01/18 05:25:39;;;;;;;;;;;7.10;95.30;;;;;;4997704;28;19913;-87
2022/01/18 05:28:06;;;;;;;;;;;7.10;95.30;;;;;;4995856;28;19917;-87
2022/01/18 05:30:32;;;;;;;;;;;7.10;95.30;;;;;;4994187;28;20379;-87
2022/01/18 05:32:58;;;;;;;;;;;7.10;95.40;;;;;;4973382;28;20382;-87
2022/01/18 05:35:24;;;;;;;;;;;7.10;95.40;;;;;;4995186;28;20107;-87
2022/01/18 05:37:50;;;;;;;;;;;7.10;95.40;;;;;;5010702;28;19972;-87
2022/01/18 05:40:17;;;;;;;;;;;7.10;95.40;;;;;;4971050;28;20370;-87
2022/01/18 05:42:42;;;;;;;;;;;7.10;95.40;;;;;;4971981;28;20402;-87
2022/01/18 05:45:09;;;;;;;;;;;7.10;95.40;;;;;;4976634;28;19997;-87
2022/01/18 05:47:35;;;;;;;;;;;7.20;95.40;;;;;;4981208;28;20244;-87
2022/01/18 05:50:02;;;;;;;;;;;7.20;95.40;;;;;;4977036;28;20028;-87
2022/01/18 05:52:27;;;;;;;;;;;7.20;95.40;;;;;;4975989;28;20611;-87
2022/01/18 05:54:53;;;;;;;;;;;7.20;95.40;;;;;;4965664;28;19925;-87
2022/01/18 05:57:18;;;;;;;;;;;7.20;95.40;;;;;;4992117;28;19961;-87
2022/01/18 05:59:46;;;;;;;;;;;7.20;95.40;;;;;;5003856;28;19920;-87
2022/01/18 06:02:31;;;;;;;;;;;7.20;95.40;;;;;;4976582;28;20225;-87
2022/01/18 06:07:41;;;;;;;;;;;7.20;95.40;;;;;;4993428;28;19968;-87
2022/01/18 06:10:06;;;;;;;;;;;7.20;95.40;;;;;;4977302;28;20070;-87
2022/01/18 06:12:32;;;;;;;;;;;7.20;95.40;;;;;;4999270;28;19959;-87
2022/01/18 06:14:58;;;;;;;;;;;7.20;95.40;;;;;;4982556;28;19924;-87
2022/01/18 06:17:24;;;;;;;;;;;7.20;95.40;;;;;;5000801;28;20342;-87
2022/01/18 06:19:49;;;;;;;;;;;7.20;95.40;;;;;;4977800;28;19913;-87
2022/01/18 06:22:15;;;;;;;;;;;7.20;95.40;;;;;;5003239;28;20413;-87
2022/01/18 06:24:40;;;;;;;;;;;7.20;95.40;;;;;;4968882;28;20335;-87
2022/01/18 06:27:07;;;;;;;;;;;7.20;95.40;;;;;;4973101;28;19936;-87
2022/01/18 06:29:33;;;;;;;;;;;7.20;95.40;;;;;;4986829;28;19913;-87
2022/01/18 06:31:58;;;;;;;;;;;7.20;95.40;;;;;;4982381;28;20312;-87
2022/01/18 06:34:24;;;;;;;;;;;7.20;95.40;;;;;;4980402;28;19918;-87
2022/01/18 06:36:49;;;;;;;;;;;7.30;95.40;;;;;;4979006;28;20004;-87
2022/01/18 06:39:16;;;;;;;;;;;7.20;95.40;;;;;;4977290;28;19914;-87
2022/01/18 06:41:45;;;;;;;;;;;7.20;95.40;;;;;;4988867;28;19944;-87
2022/01/18 06:44:10;;;;;;;;;;;7.20;95.40;;;;;;5021021;28;19953;-87
2022/01/18 06:46:36;;;;;;;;;;;7.20;95.40;;;;;;4985277;28;19956;-87
2022/01/18 06:49:01;;;;;;;;;;;7.20;95.40;;;;;;4975433;28;20015;-87
2022/01/18 06:51:27;;;;;;;;;;;7.30;95.50;;;;;;5000833;28;20244;-87
2022/01/18 06:53:53;;;;;;;;;;;7.30;95.50;;;;;;5000483;28;20747;-89
2022/01/18 06:56:19;;;;;;;;;;;7.30;95.50;;;;;;4980665;28;19956;-89
2022/01/18 06:58:45;;;;;;;;;;;7.30;95.50;;;;;;4986582;28;19918;-87
2022/01/18 07:01:12;;;;;;;;;;;7.30;95.50;;;;;;5000606;28;19976;-87
2022/01/18 07:03:38;;;;;;;;;;;7.30;95.50;;;;;;4981221;28;19913;-87
2022/01/18 07:06:03;;;;;;;;;;;7.30;95.50;;;;;;4977057;28;20303;-87
2022/01/18 07:08:30;;;;;;;;;;;7.30;95.50;;;;;;4999974;28;19951;-87
2022/01/18 07:10:56;;;;;;;;;;;7.30;95.50;;;;;;4979923;28;20507;-89
2022/01/18 07:13:21;;;;;;;;;;;7.20;95.50;;;;;;4987782;28;20008;-87
2022/01/18 07:15:47;;;;;;;;;;;7.20;95.50;;;;;;4982354;28;19976;-87
2022/01/18 07:18:12;;;;;;;;;;;7.30;95.50;;;;;;4982328;28;19918;-87
2022/01/18 07:20:38;;;;;;;;;;;7.20;95.50;;;;;;5007212;28;19925;-87
2022/01/18 07:23:07;;;;;;;;;;;7.20;95.50;;;;;;4985878;28;19932;-87
2022/01/18 07:25:33;;;;;;;;;;;7.20;95.50;;;;;;4987694;28;20275;-87
2022/01/18 07:27:58;;;;;;;;;;;7.20;95.50;;;;;;4982888;28;20019;-87
2022/01/18 07:30:24;;;;;;;;;;;7.20;95.50;;;;;;4999714;28;19928;-87
2022/01/18 07:32:50;;;;;;;;;;;7.20;95.50;;;;;;4974594;28;20048;-87
2022/01/18 07:35:15;;;;;;;;;;;7.30;95.60;;;;;;4992702;28;19929;-87
2022/01/18 07:37:41;;;;;;;;;;;7.30;95.60;;;;;;4983331;28;19925;-87
2022/01/18 07:40:07;;;;;;;;;;;7.30;95.60;;;;;;4984740;28;19913;-87
2022/01/18 07:42:33;;;;;;;;;;;7.30;95.60;;;;;;4981288;28;19949;-87
2022/01/18 07:44:58;;;;;;;;;;;7.30;95.60;;;;;;4979187;28;20022;-87
2022/01/18 07:47:24;;;;;;;;;;;7.30;95.60;;;;;;4999309;28;19959;-87
2022/01/18 07:49:49;;;;;;;;;;;7.30;95.60;;;;;;4982057;28;19920;-87
2022/01/18 07:52:16;;;;;;;;;;;7.30;95.60;;;;;;4995059;28;19918;-87
2022/01/18 07:54:42;;;;;;;;;;;7.30;95.60;;;;;;4983579;28;20011;-87
2022/01/18 07:57:08;;;;;;;;;;;7.30;96.00;;;;;;5000807;28;19961;-87
2022/01/18 07:59:33;;;;;;;;;;;7.30;95.70;;;;;;4968222;28;20122;-87
2022/01/18 08:01:59;;;;;;;;;;;7.30;95.70;;;;;;4982607;28;19921;-87
2022/01/18 08:04:24;;;;;;;;;;;7.40;95.70;;;;;;4987590;28;19941;-87
2022/01/18 08:06:50;;;;;;;;;;;7.40;95.70;;;;;;4988257;28;19917;-87
2022/01/18 08:09:19;;;;;;;;;;;7.40;95.70;;;;;;4980111;28;19914;-87
2022/01/18 08:11:48;;;;;;;;;;;7.40;95.80;;;;;;4985374;28;21097;-87
2022/01/18 08:14:14;;;;;;;;;;;7.40;95.70;;;;;;4969616;28;19910;-87
2022/01/18 08:17:00;;;;;;;;;;;7.50;95.80;;;;;;5015013;28;19917;-87
2022/01/18 08:19:29;;;;;;;;;;;7.40;95.70;;;;;;4972901;28;19924;-87
2022/01/18 08:21:54;;;;;;;;;;;7.50;95.80;;;;;;4992597;28;20093;-87
2022/01/18 08:24:21;;;;;;;;;;;7.50;95.80;;;;;;4988049;28;19921;-87
2022/01/18 08:26:46;;;;;;;;;;;7.50;95.80;;;;;;4990634;28;19922;-87
2022/01/18 08:29:12;;;;;;;;;;;7.50;95.80;;;;;;4982662;28;20402;-87
2022/01/18 08:31:38;;;;;;;;;;;7.50;95.80;;;;;;4991366;28;20570;-87
2022/01/18 08:34:04;;;;;;;;;;;7.60;95.80;;;;;;5004939;28;20001;-87
2022/01/18 08:36:29;;;;;;;;;;;7.60;95.80;;;;;;4975289;28;20361;-87
2022/01/18 08:38:56;;;;;;;;;;;7.60;95.80;;;;;;4971809;28;20165;-87
2022/01/18 08:41:22;;;;;;;;;;;7.60;95.80;;;;;;4979950;28;19922;-87
2022/01/18 08:43:48;;;;;;;;;;;7.60;95.80;;;;;;4984691;28;20632;-87
2022/01/18 08:46:13;;;;;;;;;;;7.60;95.80;;;;;;4969762;28;20351;-87
2022/01/18 08:48:39;;;;;;;;;;;7.60;95.80;;;;;;4997404;28;19920;-87
2022/01/18 08:51:05;;;;;;;;;;;7.70;95.80;;;;;;4978285;28;20456;-87
2022/01/18 08:53:31;;;;;;;;;;;7.70;95.80;;;;;;4986860;28;19921;-87
2022/01/18 08:55:56;;;;;;;;;;;7.70;95.90;;;;;;4982700;28;19951;-87
2022/01/18 08:58:22;;;;;;;;;;;7.70;95.90;;;;;;4990633;28;20189;-87
2022/01/18 09:00:48;;;;;;;;;;;7.70;95.90;;;;;;4970696;28;20037;-87
2022/01/18 09:03:13;;;;;;;;;;;7.70;95.90;;;;;;4998241;28;19944;-87
2022/01/18 09:05:39;;;;;;;;;;;7.70;95.90;;;;;;4988219;28;20020;-87
2022/01/18 09:08:06;;;;;;;;;;;7.80;96.00;;;;;;4997874;28;19914;-87
2022/01/18 09:10:31;;;;;;;;;;;7.80;96.00;;;;;;4987740;28;20267;-87
2022/01/18 09:12:57;;;;;;;;;;;7.80;96.00;;;;;;4993045;28;19944;-87
2022/01/18 09:15:25;;;;;;;;;;;7.80;96.00;;;;;;4982666;28;19941;-87
2022/01/18 09:17:50;;;;;;;;;;;7.90;96.10;;;;;;4966427;28;20066;-87
2022/01/18 09:20:16;;;;;;;;;;;7.90;96.10;;;;;;4975867;28;19967;-87
2022/01/18 09:22:43;;;;;;;;;;;7.90;96.10;;;;;;4975153;28;20016;-87
2022/01/18 09:25:10;;;;;;;;;;;7.90;96.10;;;;;;4991674;28;20325;-87
2022/01/18 09:27:36;;;;;;;;;;;8.00;96.10;;;;;;4994484;28;19922;-87
2022/01/18 09:30:02;;;;;;;;;;;8.00;96.10;;;;;;4966590;28;19922;-87
2022/01/18 09:32:28;;;;;;;;;;;8.00;96.60;;;;;;4977299;28;20277;-87
2022/01/18 09:34:54;;;;;;;;;;;8.10;96.40;;;;;;4999056;28;20126;-87
2022/01/18 09:37:19;;;;;;;;;;;8.20;96.50;;;;;;4975518;28;19968;-87
2022/01/18 09:39:45;;;;;;;;;;;8.30;96.60;;;;;;4996785;28;20026;-87
2022/01/18 09:42:11;;;;;;;;;;;8.30;96.60;;;;;;4973985;28;19964;-87
2022/01/18 09:44:37;;;;;;;;;;;8.40;96.70;;;;;;4976593;28;19913;-87
2022/01/18 09:47:04;;;;;;;;;;;8.60;97.00;;;;;;4991789;28;20367;-87
2022/01/18 09:49:29;;;;;;;;;;;8.80;97.10;;;;;;4988341;28;19917;-87
2022/01/18 09:51:55;;;;;;;;;;;8.90;97.10;;;;;;4979283;28;20465;-87
2022/01/18 09:54:21;;;;;;;;;;;9.10;97.10;;;;;;5003247;28;19948;-87
2022/01/18 09:56:46;;;;;;;;;;;9.20;97.40;;;;;;4968833;28;20276;-87
2022/01/18 09:59:12;;;;;;;;;;;9.40;97.20;;;;;;4994682;28;19941;-87
2022/01/18 10:01:37;;;;;;;;;;;9.60;97.40;;;;;;4987484;28;19918;-87
2022/01/18 10:04:14;;;;;;;;;;;9.80;97.40;;;;;;4985651;28;19984;-87
2022/01/18 10:06:41;;;;;;;;;;;9.90;97.40;;;;;;4977763;28;19921;-87
2022/01/18 10:09:10;;;;;;;;;;;10.10;97.40;;;;;;4998176;28;19914;-87
2022/01/18 10:11:36;;;;;;;;;;;10.30;97.40;;;;;;4978285;28;19917;-87
2022/01/18 10:14:01;;;;;;;;;;;10.40;97.30;;;;;;5010660;28;19936;-87
2022/01/18 10:16:27;;;;;;;;;;;10.60;97.30;;;;;;4976060;28;19921;-87
2022/01/18 10:18:55;;;;;;;;;;;10.70;97.30;;;;;;4955107;28;20068;-87
2022/01/18 10:21:29;;;;;;;;;;;10.90;97.50;;;;;;5001643;28;20697;-87
2022/01/18 10:24:09;;;;;;;;;;;11.30;98.00;;;;;;4978442;28;20020;-87
2022/01/18 10:26:38;;;;;;;;;;;11.70;98.50;;;;;;4975005;28;19921;-87
2022/01/18 10:29:04;;;;;;;;;;;12.30;98.80;;;;;;4991485;28;19953;-88
2022/01/18 10:31:41;;;;;;;;;;;12.90;99.00;;;;;;4980881;28;20007;-88
2022/01/18 10:34:14;;;;;;;;;;;13.50;99.10;;;;;;4977459;28;19948;-87
2022/01/18 10:36:58;;;;;;;;;;;14.10;99.10;;;;;;4996503;28;20173;-88
2022/01/18 10:39:28;;;;;;;;;;;14.70;98.90;;;;;;4993858;28;20210;-88
2022/01/18 10:41:54;;;;;;;;;;;15.20;98.60;;;;;;4997936;28;19913;-88
2022/01/18 10:44:20;;;;;;;;;;;15.70;98.30;;;;;;4972900;28;19925;-88
2022/01/18 10:46:53;;;;;;;;;;;16.10;98.00;;;;;;4977954;28;19914;-88
2022/01/18 10:49:36;;;;;;;;;;;16.50;97.50;;;;;;4980000;28;19975;-88
2022/01/18 10:52:18;;;;;;;;;;;16.90;97.10;;;;;;4980891;28;20402;-88
2022/01/18 10:54:49;;;;;;;;;;;17.20;96.30;;;;;;4980914;28;20098;-88
2022/01/18 10:57:23;;;;;;;;;;;17.50;95.50;;;;;;4993162;28;19917;-88
2022/01/18 10:59:54;;;;;;;;;;;17.70;95.10;;;;;;4967337;28;20252;-88
2022/01/18 11:02:20;;;;;;;;;;;17.80;94.80;;;;;;4987381;28;19917;-88
2022/01/18 11:04:47;;;;;;;;;;;17.90;94.30;;;;;;4967706;28;20074;-88
2022/01/18 11:07:13;;;;;;;;;;;18.00;94.00;;;;;;4997430;28;19914;-88
2022/01/18 11:09:39;;;;;;;;;;;18.00;93.90;;;;;;4977096;28;19917;-88
2022/01/18 11:12:06;;;;;;;;;;;17.90;93.40;;;;;;4979158;28;19913;-88
2022/01/18 11:14:32;;;;;;;;;;;17.80;93.10;;;;;;4982391;28;20278;-88
2022/01/18 11:16:59;;;;;;;;;;;17.70;92.90;;;;;;4991716;28;20031;-88
2022/01/18 11:21:52;;;;;;;;;;;17.40;93.00;;;;;;4977771;28;19921;-88
2022/01/18 11:24:18;;;;;;;;;;;17.20;92.80;;;;;;4984308;28;19923;-88
2022/01/18 11:26:44;;;;;;;;;;;17.10;92.90;;;;;;4992864;28;20157;-88
2022/01/18 11:29:11;;;;;;;;;;;17.10;93.00;;;;;;4967665;28;19913;-88
2022/01/18 11:31:37;;;;;;;;;;;16.90;92.80;;;;;;4998182;28;20378;-88
2022/01/18 11:34:03;;;;;;;;;;;16.90;92.70;;;;;;4991309;28;19914;-88
2022/01/18 11:36:32;;;;;;;;;;;16.90;92.90;;;;;;4967541;28;19918;-88
2022/01/18 11:39:01;;;;;;;;;;;17.00;93.20;;;;;;4996401;28;20332;-88
2022/01/18 11:41:28;;;;;;;;;;;17.10;92.70;;;;;;4976774;28;19913;-88
2022/01/18 11:43:56;;;;;;;;;;;17.10;92.40;;;;;;4972439;28;20039;-88
2022/01/18 11:46:21;;;;;;;;;;;17.10;92.00;;;;;;4979750;28;19972;-88
2022/01/18 11:48:48;;;;;;;;;;;17.00;92.80;;;;;;4977557;28;20130;-88
2022/01/18 11:51:17;;;;;;;;;;;16.90;92.30;;;;;;5002250;28;19920;-88
2022/01/18 11:53:54;;;;;;;;;;;16.80;91.90;;;;;;4982743;28;19917;-88
2022/01/18 11:56:33;;;;;;;;;;;16.70;92.00;;;;;;5000054;28;19921;-88
2022/01/18 11:59:11;;;;;;;;;;;16.60;92.10;;;;;;4988669;28;19929;-88
2022/01/18 12:01:57;;;;;;;;;;;16.50;91.70;;;;;;4972338;28;20307;-88
2022/01/18 12:04:54;;;;;;;;;;;16.40;91.70;;;;;;4994388;28;20059;-88
2022/01/18 12:07:47;;;;;;;;;;;16.30;91.90;;;;;;4967729;28;19968;-88
2022/01/18 12:10:19;;;;;;;;;;;16.20;91.80;;;;;;4988812;28;19968;-87
2022/01/18 12:12:49;;;;;;;;;;;16.10;91.80;;;;;;4995964;28;20275;-87
2022/01/18 12:15:18;;;;;;;;;;;16.10;91.90;;;;;;4964828;28;19976;-88
2022/01/18 12:17:46;;;;;;;;;;;16.00;91.80;;;;;;4974899;28;19917;-87
2022/01/18 12:20:50;;;;;;;;;;;15.90;91.90;;;;;;4992836;28;20352;-88
2022/01/18 12:23:17;;;;;;;;;;;15.80;91.90;;;;;;4922283;29;19966;-88
2022/01/18 12:25:56;;;;;;;;;;;15.70;91.50;;;;;;4938992;29;20343;-88
2022/01/18 12:34:29;;;;;;;;;;;15.30;92.20;;;;;;5014685;28;19921;-87
2022/01/18 12:36:57;;;;;;;;;;;15.10;92.20;;;;;;4994823;28;20424;-87
2022/01/18 12:39:23;;;;;;;;;;;15.00;92.30;;;;;;4982715;28;19999;-87
2022/01/18 12:41:54;;;;;;;;;;;15.00;92.60;;;;;;4974111;28;20012;-87
2022/01/18 12:44:20;;;;;;;;;;;14.90;92.80;;;;;;4989613;28;19917;-87
2022/01/18 12:46:53;;;;;;;;;;;15.00;93.10;;;;;;4986893;28;19921;-87
2022/01/18 12:49:19;;;;;;;;;;;15.00;93.10;;;;;;4986922;28;19922;-88
2022/01/18 12:51:45;;;;;;;;;;;15.10;93.40;;;;;;4970104;28;19921;-87
2022/01/18 12:54:11;;;;;;;;;;;15.10;93.50;;;;;;4973420;28;19917;-87
2022/01/18 12:56:36;;;;;;;;;;;15.10;93.50;;;;;;4984234;28;20005;-87
2022/01/18 12:59:04;;;;;;;;;;;15.10;93.80;;;;;;4990130;28;19928;-87
2022/01/18 13:01:31;;;;;;;;;;;15.10;93.50;;;;;;4970838;28;20122;-87
2022/01/18 13:03:57;;;;;;;;;;;15.10;93.10;;;;;;4983174;28;20345;-87
2022/01/18 13:06:24;;;;;;;;;;;15.10;93.20;;;;;;4974964;28;19922;-87
2022/01/18 13:08:52;;;;;;;;;;;15.10;93.30;;;;;;4979218;28;19909;-87
2022/01/18 13:11:23;;;;;;;;;;;15.10;93.80;;;;;;4980769;28;19921;-87
2022/01/18 13:14:00;;;;;;;;;;;15.10;93.60;;;;;;5000944;28;20008;-87
2022/01/18 13:27:38;;;;;;;;;;;15.00;93.50;;;;;;4997412;28;19963;-87
2022/01/18 13:30:20;;;;;;;;;;;14.90;93.40;;;;;;4995257;28;19929;-88
2022/01/18 13:32:47;;;;;;;;;;;14.90;93.10;;;;;;4981251;28;19921;-87
2022/01/18 13:35:14;;;;;;;;;;;14.80;93.50;;;;;;4969312;28;20286;-87
2022/01/18 13:37:40;;;;;;;;;;;14.70;93.00;;;;;;4977694;28;20138;-87
2022/01/18 13:40:11;;;;;;;;;;;14.60;92.80;;;;;;4972722;28;21042;-87
2022/01/18 13:42:38;;;;;;;;;;;14.50;92.80;;;;;;4969030;28;20131;-87
2022/01/18 13:45:12;;;;;;;;;;;14.40;93.10;;;;;;4997033;28;19925;-87
2022/01/18 13:47:42;;;;;;;;;;;14.30;92.90;;;;;;4994590;28;20119;-87
2022/01/18 13:50:26;;;;;;;;;;;14.30;92.90;;;;;;4967284;28;19922;-87
2022/01/18 13:53:03;;;;;;;;;;;14.20;92.80;;;;;;4994419;28;19961;-87
2022/01/18 13:55:29;;;;;;;;;;;14.20;92.90;;;;;;4967188;28;19932;-87
2022/01/18 13:57:56;;;;;;;;;;;14.20;93.00;;;;;;4996409;28;19924;-87
2022/01/18 14:00:22;;;;;;;;;;;14.10;92.90;;;;;;4979007;28;19936;-87
2022/01/18 14:02:48;;;;;;;;;;;14.10;92.90;;;;;;4995571;28;19914;-87
2022/01/18 14:05:14;;;;;;;;;;;14.10;92.80;;;;;;4986626;28;19914;-87
2022/01/18 14:07:40;;;;;;;;;;;14.10;92.80;;;;;;4981580;28;19913;-87
2022/01/18 14:10:06;;;;;;;;;;;14.10;92.70;;;;;;4991921;28;20099;-87
2022/01/18 14:12:32;;;;;;;;;;;14.10;92.70;;;;;;4968165;28;19967;-87
2022/01/18 14:14:58;;;;;;;;;;;14.00;92.80;;;;;;4981863;28;19914;-87
2022/01/18 14:17:23;;;;;;;;;;;14.00;92.70;;;;;;4976133;28;20333;-87
2022/01/18 14:19:51;;;;;;;;;;;14.00;92.70;;;;;;4973987;28;19914;-87
2022/01/18 14:22:18;;;;;;;;;;;14.00;92.70;;;;;;4974714;28;19992;-87
2022/01/18 14:24:45;;;;;;;;;;;14.00;92.80;;;;;;4979722;28;19913;-87
2022/01/18 14:27:12;;;;;;;;;;;13.90;92.70;;;;;;4968385;28;20209;-87
2022/01/18 14:29:41;;;;;;;;;;;13.90;92.70;;;;;;4994130;28;20429;-87
2022/01/18 14:32:07;;;;;;;;;;;13.90;92.60;;;;;;4980654;28;19920;-87
2022/01/18 14:34:33;;;;;;;;;;;13.90;92.70;;;;;;4973369;28;20315;-87
2022/01/18 14:36:58;;;;;;;;;;;13.90;92.70;;;;;;4977975;28;20066;-87
2022/01/18 14:39:24;;;;;;;;;;;13.90;92.70;;;;;;4977125;28;19987;-87
2022/01/18 14:42:00;;;;;;;;;;;13.90;92.90;;;;;;4972662;28;20319;-87
2022/01/18 14:44:46;;;;;;;;;;;13.90;93.10;;;;;;5007759;28;20317;-87
2022/01/18 14:47:27;;;;;;;;;;;13.90;92.90;;;;;;4998660;28;20008;-88
2022/01/18 14:49:59;;;;;;;;;;;13.90;92.70;;;;;;4982442;28;19921;-87
2022/01/18 14:52:25;;;;;;;;;;;13.80;92.20;;;;;;4983418;28;20157;-87
2022/01/18 14:54:51;;;;;;;;;;;13.80;92.10;;;;;;4979558;28;20268;-88
2022/01/18 14:57:18;;;;;;;;;;;13.70;91.90;;;;;;4975869;28;19921;-87
2022/01/18 14:59:43;;;;;;;;;;;13.60;91.90;;;;;;4993332;28;19944;-87
2022/01/18 15:02:10;;;;;;;;;;;13.50;92.00;;;;;;4994039;28;19933;-87
2022/01/18 15:04:36;;;;;;;;;;;13.40;92.10;;;;;;4986071;28;20013;-87
2022/01/18 15:07:01;;;;;;;;;;;13.40;92.00;;;;;;4991352;28;20016;-87
2022/01/18 15:09:29;;;;;;;;;;;13.20;92.00;;;;;;4991266;28;19948;-87
2022/01/18 15:11:55;;;;;;;;;;;13.20;92.10;;;;;;4973145;28;19964;-87
2022/01/18 15:14:20;;;;;;;;;;;13.10;92.30;;;;;;4963997;28;20024;-87
2022/01/18 15:16:46;;;;;;;;;;;13.00;92.30;;;;;;4993840;28;20017;-87
2022/01/18 15:19:11;;;;;;;;;;;12.90;92.10;;;;;;4979063;28;20299;-87
2022/01/18 15:21:37;;;;;;;;;;;12.90;92.30;;;;;;4972025;28;19914;-87
2022/01/18 15:24:04;;;;;;;;;;;12.80;92.20;;;;;;5005700;28;19921;-87
2022/01/18 15:26:30;;;;;;;;;;;12.70;92.10;;;;;;4956464;28;19917;-87
2022/01/18 15:28:55;;;;;;;;;;;12.70;92.00;;;;;;4967792;28;20537;-87
2022/01/18 15:31:21;;;;;;;;;;;12.60;91.90;;;;;;4978384;28;19921;-87
2022/01/18 15:33:46;;;;;;;;;;;12.50;91.80;;;;;;4977298;28;20149;-87
2022/01/18 15:36:12;;;;;;;;;;;12.40;91.80;;;;;;4995014;28;19921;-87
2022/01/18 15:38:38;;;;;;;;;;;12.30;91.70;;;;;;4974420;28;20048;-87
2022/01/18 15:41:03;;;;;;;;;;;12.20;91.60;;;;;;5003181;28;19913;-87
2022/01/18 15:43:29;;;;;;;;;;;12.10;91.60;;;;;;4978265;28;19913;-87
2022/01/18 15:45:54;;;;;;;;;;;12.10;91.60;;;;;;4949806;28;20544;-87
2022/01/18 15:48:20;;;;;;;;;;;12.00;91.50;;;;;;5011780;28;20387;-87
2022/01/18 15:50:46;;;;;;;;;;;11.90;91.30;;;;;;4992335;28;19921;-87
2022/01/18 15:53:11;;;;;;;;;;;11.80;91.30;;;;;;4994500;28;20011;-87
2022/01/18 15:55:37;;;;;;;;;;;11.70;91.40;;;;;;4978393;28;20339;-87
2022/01/18 15:58:02;;;;;;;;;;;11.60;91.50;;;;;;4955782;28;20018;-87
2022/01/18 16:00:28;;;;;;;;;;;11.50;91.50;;;;;;4983837;28;19924;-87